sensor_id;sensor_type;location;lat;lon;timestamp;P1;durP1;ratioP1;P2;durP2;ratioP2
4939;SDS011;2485;49.326;7.214;2024-01-11T00:00:50;38.00;;;16.13;;
4939;SDS011;2485;49.326;7.214;2024-01-11T00:03:17;36.63;;;15.77;;
4939;SDS011;2485;49.326;7.214;2024-01-11T00:05:45;37.33;;;16.50;;
4939;SDS011;2485;49.326;7.214;2024-01-11T00:08:11;39.33;;;15.20;;
4939;SDS011;2485;49.326;7.214;2024-01-11T00:10:38;31.70;;;15.17;;
4939;SDS011;2485;49.326;7.214;2024-01-11T00:13:04;34.47;;;14.60;;
4939;SDS011;2485;49.326;7.214;2024-01-11T00:15:31;34.40;;;15.50;;
4939;SDS011;2485;49.326;7.214;2024-01-11T00:17:57;37.43;;;16.20;;
4939;SDS011;2485;49.326;7.214;2024-01-11T00:20:24;33.37;;;15.10;;
4939;SDS011;2485;49.326;7.214;2024-01-11T00:22:52;35.80;;;14.70;;
4939;SDS011;2485;49.326;7.214;2024-01-11T00:25:18;35.50;;;15.20;;
4939;SDS011;2485;49.326;7.214;2024-01-11T00:27:45;37.60;;;15.27;;
4939;SDS011;2485;49.326;7.214;2024-01-11T00:30:11;42.40;;;16.40;;
4939;SDS011;2485;49.326;7.214;2024-01-11T00:32:38;36.73;;;14.03;;
4939;SDS011;2485;49.326;7.214;2024-01-11T00:35:05;31.10;;;14.47;;
4939;SDS011;2485;49.326;7.214;2024-01-11T00:37:32;31.07;;;13.67;;
4939;SDS011;2485;49.326;7.214;2024-01-11T00:39:59;29.10;;;13.20;;
4939;SDS011;2485;49.326;7.214;2024-01-11T00:42:26;30.30;;;13.73;;
4939;SDS011;2485;49.326;7.214;2024-01-11T00:44:52;33.90;;;14.10;;
4939;SDS011;2485;49.326;7.214;2024-01-11T00:47:19;35.27;;;14.70;;
4939;SDS011;2485;49.326;7.214;2024-01-11T00:49:45;33.97;;;14.70;;
4939;SDS011;2485;49.326;7.214;2024-01-11T00:52:12;39.80;;;15.97;;
4939;SDS011;2485;49.326;7.214;2024-01-11T00:54:39;39.63;;;14.00;;
4939;SDS011;2485;49.326;7.214;2024-01-11T00:57:07;35.77;;;14.40;;
4939;SDS011;2485;49.326;7.214;2024-01-11T00:59:33;34.57;;;13.60;;
4939;SDS011;2485;49.326;7.214;2024-01-11T01:02:00;34.70;;;14.03;;
4939;SDS011;2485;49.326;7.214;2024-01-11T01:04:26;31.77;;;14.10;;
4939;SDS011;2485;49.326;7.214;2024-01-11T01:06:53;37.90;;;14.97;;
4939;SDS011;2485;49.326;7.214;2024-01-11T01:09:20;35.27;;;14.50;;
4939;SDS011;2485;49.326;7.214;2024-01-11T01:11:46;34.53;;;14.93;;
4939;SDS011;2485;49.326;7.214;2024-01-11T01:14:14;34.17;;;13.87;;
4939;SDS011;2485;49.326;7.214;2024-01-11T01:16:40;30.37;;;14.30;;
4939;SDS011;2485;49.326;7.214;2024-01-11T01:19:08;29.83;;;14.00;;
4939;SDS011;2485;49.326;7.214;2024-01-11T01:21:34;32.73;;;14.50;;
4939;SDS011;2485;49.326;7.214;2024-01-11T01:24:01;35.53;;;15.03;;
4939;SDS011;2485;49.326;7.214;2024-01-11T01:26:27;35.87;;;14.80;;
4939;SDS011;2485;49.326;7.214;2024-01-11T01:28:54;34.63;;;15.37;;
4939;SDS011;2485;49.326;7.214;2024-01-11T01:31:22;37.67;;;15.53;;
4939;SDS011;2485;49.326;7.214;2024-01-11T01:33:48;38.50;;;15.13;;
4939;SDS011;2485;49.326;7.214;2024-01-11T01:36:15;30.87;;;13.80;;
4939;SDS011;2485;49.326;7.214;2024-01-11T01:38:42;36.90;;;14.33;;
4939;SDS011;2485;49.326;7.214;2024-01-11T01:41:08;34.10;;;14.17;;
4939;SDS011;2485;49.326;7.214;2024-01-11T01:43:35;38.50;;;15.37;;
4939;SDS011;2485;49.326;7.214;2024-01-11T01:46:02;31.67;;;14.37;;
4939;SDS011;2485;49.326;7.214;2024-01-11T01:48:30;28.70;;;14.53;;
4939;SDS011;2485;49.326;7.214;2024-01-11T01:50:57;31.33;;;13.13;;
4939;SDS011;2485;49.326;7.214;2024-01-11T01:53:23;37.67;;;15.70;;
4939;SDS011;2485;49.326;7.214;2024-01-11T01:55:50;38.00;;;15.63;;
4939;SDS011;2485;49.326;7.214;2024-01-11T01:58:18;34.37;;;14.00;;
4939;SDS011;2485;49.326;7.214;2024-01-11T02:00:45;34.40;;;15.63;;
4939;SDS011;2485;49.326;7.214;2024-01-11T02:03:11;38.53;;;15.87;;
4939;SDS011;2485;49.326;7.214;2024-01-11T02:05:40;34.27;;;15.00;;
4939;SDS011;2485;49.326;7.214;2024-01-11T02:08:06;39.60;;;14.73;;
4939;SDS011;2485;49.326;7.214;2024-01-11T02:10:34;32.10;;;13.73;;
4939;SDS011;2485;49.326;7.214;2024-01-11T02:13:01;34.47;;;14.43;;
4939;SDS011;2485;49.326;7.214;2024-01-11T02:15:28;34.77;;;15.93;;
4939;SDS011;2485;49.326;7.214;2024-01-11T02:17:55;35.87;;;14.63;;
4939;SDS011;2485;49.326;7.214;2024-01-11T02:20:21;41.50;;;15.50;;
4939;SDS011;2485;49.326;7.214;2024-01-11T02:22:50;35.20;;;15.10;;
4939;SDS011;2485;49.326;7.214;2024-01-11T02:25:20;34.30;;;15.00;;
4939;SDS011;2485;49.326;7.214;2024-01-11T02:27:47;37.97;;;14.77;;
4939;SDS011;2485;49.326;7.214;2024-01-11T02:30:13;39.37;;;15.53;;
4939;SDS011;2485;49.326;7.214;2024-01-11T02:32:40;33.47;;;14.60;;
4939;SDS011;2485;49.326;7.214;2024-01-11T02:35:07;31.80;;;14.50;;
4939;SDS011;2485;49.326;7.214;2024-01-11T02:37:35;34.73;;;14.60;;
4939;SDS011;2485;49.326;7.214;2024-01-11T02:40:02;35.50;;;15.30;;
4939;SDS011;2485;49.326;7.214;2024-01-11T02:42:30;34.43;;;15.20;;
4939;SDS011;2485;49.326;7.214;2024-01-11T02:44:57;37.87;;;14.73;;
4939;SDS011;2485;49.326;7.214;2024-01-11T02:47:23;35.30;;;13.63;;
4939;SDS011;2485;49.326;7.214;2024-01-11T02:49:50;39.60;;;16.20;;
4939;SDS011;2485;49.326;7.214;2024-01-11T02:52:16;36.87;;;14.30;;
4939;SDS011;2485;49.326;7.214;2024-01-11T02:54:42;41.30;;;15.43;;
4939;SDS011;2485;49.326;7.214;2024-01-11T02:57:09;38.73;;;14.30;;
4939;SDS011;2485;49.326;7.214;2024-01-11T02:59:37;37.23;;;15.50;;
4939;SDS011;2485;49.326;7.214;2024-01-11T03:02:03;38.90;;;14.77;;
4939;SDS011;2485;49.326;7.214;2024-01-11T03:04:30;40.67;;;14.70;;
4939;SDS011;2485;49.326;7.214;2024-01-11T03:06:57;36.63;;;15.07;;
4939;SDS011;2485;49.326;7.214;2024-01-11T03:09:23;34.17;;;14.90;;
4939;SDS011;2485;49.326;7.214;2024-01-11T03:11:50;38.30;;;15.30;;
4939;SDS011;2485;49.326;7.214;2024-01-11T03:14:17;36.37;;;15.27;;
4939;SDS011;2485;49.326;7.214;2024-01-11T03:16:45;38.63;;;15.03;;
4939;SDS011;2485;49.326;7.214;2024-01-11T03:19:11;36.73;;;15.27;;
4939;SDS011;2485;49.326;7.214;2024-01-11T03:21:40;38.13;;;14.60;;
4939;SDS011;2485;49.326;7.214;2024-01-11T03:24:07;41.77;;;15.20;;
4939;SDS011;2485;49.326;7.214;2024-01-11T03:26:33;32.13;;;14.90;;
4939;SDS011;2485;49.326;7.214;2024-01-11T03:29:00;39.60;;;14.97;;
4939;SDS011;2485;49.326;7.214;2024-01-11T03:31:26;34.73;;;14.63;;
4939;SDS011;2485;49.326;7.214;2024-01-11T03:33:54;40.07;;;16.07;;
4939;SDS011;2485;49.326;7.214;2024-01-11T03:36:22;38.13;;;15.47;;
4939;SDS011;2485;49.326;7.214;2024-01-11T03:38:49;37.80;;;17.03;;
4939;SDS011;2485;49.326;7.214;2024-01-11T03:41:16;40.73;;;14.97;;
4939;SDS011;2485;49.326;7.214;2024-01-11T03:43:42;36.20;;;15.90;;
4939;SDS011;2485;49.326;7.214;2024-01-11T03:46:09;35.17;;;14.83;;
4939;SDS011;2485;49.326;7.214;2024-01-11T03:48:35;44.87;;;16.40;;
4939;SDS011;2485;49.326;7.214;2024-01-11T03:51:03;35.47;;;16.00;;
4939;SDS011;2485;49.326;7.214;2024-01-11T03:53:30;41.80;;;15.97;;
4939;SDS011;2485;49.326;7.214;2024-01-11T03:55:56;37.70;;;16.13;;
4939;SDS011;2485;49.326;7.214;2024-01-11T03:58:23;47.53;;;15.63;;
4939;SDS011;2485;49.326;7.214;2024-01-11T04:00:49;42.37;;;15.37;;
4939;SDS011;2485;49.326;7.214;2024-01-11T04:03:16;35.37;;;15.57;;
4939;SDS011;2485;49.326;7.214;2024-01-11T04:05:43;38.80;;;15.83;;
4939;SDS011;2485;49.326;7.214;2024-01-11T04:08:11;43.40;;;15.77;;
4939;SDS011;2485;49.326;7.214;2024-01-11T04:10:38;39.87;;;15.70;;
4939;SDS011;2485;49.326;7.214;2024-01-11T04:13:06;44.97;;;16.70;;
4939;SDS011;2485;49.326;7.214;2024-01-11T04:15:32;37.90;;;15.77;;
4939;SDS011;2485;49.326;7.214;2024-01-11T04:17:59;46.23;;;17.17;;
4939;SDS011;2485;49.326;7.214;2024-01-11T04:20:25;37.47;;;16.00;;
4939;SDS011;2485;49.326;7.214;2024-01-11T04:22:52;38.17;;;16.00;;
4939;SDS011;2485;49.326;7.214;2024-01-11T04:25:20;37.33;;;16.40;;
4939;SDS011;2485;49.326;7.214;2024-01-11T04:27:47;32.97;;;14.17;;
4939;SDS011;2485;49.326;7.214;2024-01-11T04:30:13;36.87;;;15.37;;
4939;SDS011;2485;49.326;7.214;2024-01-11T04:32:40;45.50;;;15.20;;
4939;SDS011;2485;49.326;7.214;2024-01-11T04:35:07;36.87;;;16.10;;
4939;SDS011;2485;49.326;7.214;2024-01-11T04:37:34;36.40;;;15.47;;
4939;SDS011;2485;49.326;7.214;2024-01-11T04:40:01;39.03;;;16.07;;
4939;SDS011;2485;49.326;7.214;2024-01-11T04:42:30;38.33;;;15.13;;
4939;SDS011;2485;49.326;7.214;2024-01-11T04:44:56;49.17;;;18.13;;
4939;SDS011;2485;49.326;7.214;2024-01-11T04:47:23;37.20;;;15.10;;
4939;SDS011;2485;49.326;7.214;2024-01-11T04:49:49;43.53;;;17.33;;
4939;SDS011;2485;49.326;7.214;2024-01-11T04:52:16;41.10;;;16.80;;
4939;SDS011;2485;49.326;7.214;2024-01-11T04:54:42;37.83;;;15.43;;
4939;SDS011;2485;49.326;7.214;2024-01-11T04:57:09;39.17;;;16.20;;
4939;SDS011;2485;49.326;7.214;2024-01-11T04:59:37;39.27;;;16.03;;
4939;SDS011;2485;49.326;7.214;2024-01-11T05:02:03;35.33;;;15.73;;
4939;SDS011;2485;49.326;7.214;2024-01-11T05:04:30;39.27;;;15.60;;
4939;SDS011;2485;49.326;7.214;2024-01-11T05:06:56;38.57;;;15.63;;
4939;SDS011;2485;49.326;7.214;2024-01-11T05:09:23;39.50;;;17.50;;
4939;SDS011;2485;49.326;7.214;2024-01-11T05:11:49;37.30;;;17.77;;
4939;SDS011;2485;49.326;7.214;2024-01-11T05:14:16;41.23;;;15.80;;
4939;SDS011;2485;49.326;7.214;2024-01-11T05:16:44;37.53;;;16.27;;
4939;SDS011;2485;49.326;7.214;2024-01-11T05:19:10;49.03;;;16.17;;
4939;SDS011;2485;49.326;7.214;2024-01-11T05:21:37;32.83;;;15.47;;
4939;SDS011;2485;49.326;7.214;2024-01-11T05:24:04;42.43;;;16.93;;
4939;SDS011;2485;49.326;7.214;2024-01-11T05:26:31;42.93;;;16.40;;
4939;SDS011;2485;49.326;7.214;2024-01-11T05:28:57;40.97;;;18.00;;
4939;SDS011;2485;49.326;7.214;2024-01-11T05:31:24;37.37;;;17.13;;
4939;SDS011;2485;49.326;7.214;2024-01-11T05:33:52;44.90;;;17.80;;
4939;SDS011;2485;49.326;7.214;2024-01-11T05:36:19;38.43;;;15.37;;
4939;SDS011;2485;49.326;7.214;2024-01-11T05:38:46;40.50;;;15.73;;
4939;SDS011;2485;49.326;7.214;2024-01-11T05:41:13;47.97;;;18.57;;
4939;SDS011;2485;49.326;7.214;2024-01-11T05:43:40;39.80;;;16.77;;
4939;SDS011;2485;49.326;7.214;2024-01-11T05:46:07;50.07;;;15.80;;
4939;SDS011;2485;49.326;7.214;2024-01-11T05:48:34;46.40;;;18.73;;
4939;SDS011;2485;49.326;7.214;2024-01-11T05:51:02;36.50;;;17.27;;
4939;SDS011;2485;49.326;7.214;2024-01-11T05:53:28;43.33;;;18.77;;
4939;SDS011;2485;49.326;7.214;2024-01-11T05:55:55;43.13;;;16.20;;
4939;SDS011;2485;49.326;7.214;2024-01-11T05:58:21;39.73;;;16.90;;
4939;SDS011;2485;49.326;7.214;2024-01-11T06:00:48;34.67;;;16.07;;
4939;SDS011;2485;49.326;7.214;2024-01-11T06:03:14;36.10;;;16.40;;
4939;SDS011;2485;49.326;7.214;2024-01-11T06:05:41;50.23;;;16.90;;
4939;SDS011;2485;49.326;7.214;2024-01-11T06:08:09;36.47;;;15.63;;
4939;SDS011;2485;49.326;7.214;2024-01-11T06:10:35;36.43;;;15.30;;
4939;SDS011;2485;49.326;7.214;2024-01-11T06:13:02;36.30;;;15.37;;
4939;SDS011;2485;49.326;7.214;2024-01-11T06:15:29;44.20;;;14.10;;
4939;SDS011;2485;49.326;7.214;2024-01-11T06:17:55;33.17;;;14.80;;
4939;SDS011;2485;49.326;7.214;2024-01-11T06:20:22;48.33;;;18.60;;
4939;SDS011;2485;49.326;7.214;2024-01-11T06:22:48;48.47;;;17.77;;
4939;SDS011;2485;49.326;7.214;2024-01-11T06:25:16;42.43;;;17.80;;
4939;SDS011;2485;49.326;7.214;2024-01-11T06:27:43;43.57;;;16.70;;
4939;SDS011;2485;49.326;7.214;2024-01-11T06:30:10;38.50;;;16.80;;
4939;SDS011;2485;49.326;7.214;2024-01-11T06:32:37;41.53;;;17.90;;
4939;SDS011;2485;49.326;7.214;2024-01-11T06:35:04;42.10;;;17.47;;
4939;SDS011;2485;49.326;7.214;2024-01-11T06:37:31;42.43;;;17.03;;
4939;SDS011;2485;49.326;7.214;2024-01-11T06:39:57;39.17;;;17.77;;
4939;SDS011;2485;49.326;7.214;2024-01-11T06:42:25;43.53;;;18.10;;
4939;SDS011;2485;49.326;7.214;2024-01-11T06:44:52;48.07;;;17.00;;
4939;SDS011;2485;49.326;7.214;2024-01-11T06:47:18;39.63;;;17.90;;
4939;SDS011;2485;49.326;7.214;2024-01-11T06:49:45;38.10;;;15.90;;
4939;SDS011;2485;49.326;7.214;2024-01-11T06:52:11;46.60;;;19.00;;
4939;SDS011;2485;49.326;7.214;2024-01-11T06:54:39;42.60;;;16.33;;
4939;SDS011;2485;49.326;7.214;2024-01-11T06:57:05;40.73;;;17.17;;
4939;SDS011;2485;49.326;7.214;2024-01-11T06:59:33;43.93;;;18.20;;
4939;SDS011;2485;49.326;7.214;2024-01-11T07:02:00;43.00;;;17.33;;
4939;SDS011;2485;49.326;7.214;2024-01-11T07:04:27;43.53;;;17.40;;
4939;SDS011;2485;49.326;7.214;2024-01-11T07:06:54;44.00;;;16.30;;
4939;SDS011;2485;49.326;7.214;2024-01-11T07:09:20;38.37;;;17.13;;
4939;SDS011;2485;49.326;7.214;2024-01-11T07:11:47;39.13;;;18.23;;
4939;SDS011;2485;49.326;7.214;2024-01-11T07:14:13;40.03;;;15.20;;
4939;SDS011;2485;49.326;7.214;2024-01-11T07:16:41;48.70;;;16.47;;
4939;SDS011;2485;49.326;7.214;2024-01-11T07:19:08;40.73;;;17.20;;
4939;SDS011;2485;49.326;7.214;2024-01-11T07:21:34;43.87;;;17.53;;
4939;SDS011;2485;49.326;7.214;2024-01-11T07:24:01;41.30;;;16.70;;
4939;SDS011;2485;49.326;7.214;2024-01-11T07:26:28;42.20;;;16.60;;
4939;SDS011;2485;49.326;7.214;2024-01-11T07:28:54;42.77;;;17.70;;
4939;SDS011;2485;49.326;7.214;2024-01-11T07:31:21;50.30;;;18.10;;
4939;SDS011;2485;49.326;7.214;2024-01-11T07:33:49;40.47;;;17.57;;
4939;SDS011;2485;49.326;7.214;2024-01-11T07:36:16;42.87;;;18.20;;
4939;SDS011;2485;49.326;7.214;2024-01-11T07:38:42;50.13;;;19.27;;
4939;SDS011;2485;49.326;7.214;2024-01-11T07:41:09;42.30;;;17.20;;
4939;SDS011;2485;49.326;7.214;2024-01-11T07:43:35;40.77;;;17.20;;
4939;SDS011;2485;49.326;7.214;2024-01-11T07:46:02;48.23;;;16.57;;
4939;SDS011;2485;49.326;7.214;2024-01-11T07:48:30;38.20;;;15.80;;
4939;SDS011;2485;49.326;7.214;2024-01-11T07:50:58;33.90;;;13.70;;
4939;SDS011;2485;49.326;7.214;2024-01-11T07:53:25;39.30;;;16.57;;
4939;SDS011;2485;49.326;7.214;2024-01-11T07:55:52;41.60;;;16.17;;
4939;SDS011;2485;49.326;7.214;2024-01-11T07:58:18;42.97;;;18.03;;
4939;SDS011;2485;49.326;7.214;2024-01-11T08:00:46;44.43;;;18.67;;
4939;SDS011;2485;49.326;7.214;2024-01-11T08:03:13;38.00;;;15.93;;
4939;SDS011;2485;49.326;7.214;2024-01-11T08:05:39;40.63;;;16.40;;
4939;SDS011;2485;49.326;7.214;2024-01-11T08:08:07;37.63;;;15.60;;
4939;SDS011;2485;49.326;7.214;2024-01-11T08:10:33;37.93;;;15.33;;
4939;SDS011;2485;49.326;7.214;2024-01-11T08:13:00;31.47;;;13.73;;
4939;SDS011;2485;49.326;7.214;2024-01-11T08:15:27;33.07;;;13.57;;
4939;SDS011;2485;49.326;7.214;2024-01-11T08:17:53;38.43;;;15.93;;
4939;SDS011;2485;49.326;7.214;2024-01-11T08:20:20;44.30;;;16.43;;
4939;SDS011;2485;49.326;7.214;2024-01-11T08:22:46;38.27;;;15.77;;
4939;SDS011;2485;49.326;7.214;2024-01-11T08:25:14;35.27;;;16.00;;
4939;SDS011;2485;49.326;7.214;2024-01-11T08:27:40;37.23;;;15.47;;
4939;SDS011;2485;49.326;7.214;2024-01-11T08:30:08;38.03;;;17.73;;
4939;SDS011;2485;49.326;7.214;2024-01-11T08:32:34;36.17;;;15.50;;
4939;SDS011;2485;49.326;7.214;2024-01-11T08:35:04;49.10;;;18.23;;
4939;SDS011;2485;49.326;7.214;2024-01-11T08:37:31;37.23;;;14.13;;
4939;SDS011;2485;49.326;7.214;2024-01-11T08:39:57;26.73;;;10.00;;
4939;SDS011;2485;49.326;7.214;2024-01-11T08:42:25;39.97;;;15.73;;
4939;SDS011;2485;49.326;7.214;2024-01-11T08:44:52;32.43;;;12.27;;
4939;SDS011;2485;49.326;7.214;2024-01-11T08:47:18;39.90;;;15.40;;
4939;SDS011;2485;49.326;7.214;2024-01-11T08:49:45;23.80;;;10.70;;
4939;SDS011;2485;49.326;7.214;2024-01-11T08:52:11;16.37;;;7.57;;
4939;SDS011;2485;49.326;7.214;2024-01-11T08:54:38;26.17;;;11.60;;
4939;SDS011;2485;49.326;7.214;2024-01-11T08:57:04;25.63;;;8.73;;
4939;SDS011;2485;49.326;7.214;2024-01-11T08:59:32;23.37;;;8.00;;
4939;SDS011;2485;49.326;7.214;2024-01-11T09:01:59;41.80;;;16.23;;
4939;SDS011;2485;49.326;7.214;2024-01-11T09:04:25;48.00;;;16.17;;
4939;SDS011;2485;49.326;7.214;2024-01-11T09:06:53;47.70;;;18.30;;
4939;SDS011;2485;49.326;7.214;2024-01-11T09:09:22;32.10;;;14.30;;
4939;SDS011;2485;49.326;7.214;2024-01-11T09:11:48;36.17;;;13.50;;
4939;SDS011;2485;49.326;7.214;2024-01-11T09:14:15;34.63;;;16.30;;
4939;SDS011;2485;49.326;7.214;2024-01-11T09:16:43;41.70;;;17.47;;
4939;SDS011;2485;49.326;7.214;2024-01-11T09:19:11;36.63;;;16.77;;
4939;SDS011;2485;49.326;7.214;2024-01-11T09:21:37;35.90;;;15.80;;
4939;SDS011;2485;49.326;7.214;2024-01-11T09:24:04;34.93;;;15.80;;
4939;SDS011;2485;49.326;7.214;2024-01-11T09:26:30;34.43;;;15.43;;
4939;SDS011;2485;49.326;7.214;2024-01-11T09:28:57;33.87;;;15.87;;
4939;SDS011;2485;49.326;7.214;2024-01-11T09:31:23;39.60;;;17.47;;
4939;SDS011;2485;49.326;7.214;2024-01-11T09:33:52;25.57;;;11.53;;
4939;SDS011;2485;49.326;7.214;2024-01-11T09:36:19;37.80;;;15.37;;
4939;SDS011;2485;49.326;7.214;2024-01-11T09:38:45;35.00;;;16.03;;
4939;SDS011;2485;49.326;7.214;2024-01-11T09:41:13;39.13;;;16.57;;
4939;SDS011;2485;49.326;7.214;2024-01-11T09:43:40;39.53;;;16.67;;
4939;SDS011;2485;49.326;7.214;2024-01-11T09:46:07;41.30;;;17.87;;
4939;SDS011;2485;49.326;7.214;2024-01-11T09:48:34;35.87;;;14.40;;
4939;SDS011;2485;49.326;7.214;2024-01-11T09:51:02;27.33;;;9.90;;
4939;SDS011;2485;49.326;7.214;2024-01-11T09:53:29;40.37;;;16.50;;
4939;SDS011;2485;49.326;7.214;2024-01-11T09:55:56;38.20;;;16.67;;
4939;SDS011;2485;49.326;7.214;2024-01-11T09:58:24;31.47;;;13.60;;
4939;SDS011;2485;49.326;7.214;2024-01-11T10:00:52;36.20;;;16.73;;
4939;SDS011;2485;49.326;7.214;2024-01-11T10:03:20;33.27;;;13.70;;
4939;SDS011;2485;49.326;7.214;2024-01-11T10:05:46;36.00;;;16.07;;
4939;SDS011;2485;49.326;7.214;2024-01-11T10:08:17;25.67;;;9.47;;
4939;SDS011;2485;49.326;7.214;2024-01-11T10:10:44;41.03;;;17.07;;
4939;SDS011;2485;49.326;7.214;2024-01-11T10:13:10;34.27;;;14.30;;
4939;SDS011;2485;49.326;7.214;2024-01-11T10:15:37;35.03;;;15.43;;
4939;SDS011;2485;49.326;7.214;2024-01-11T10:18:04;26.77;;;12.17;;
4939;SDS011;2485;49.326;7.214;2024-01-11T10:20:30;21.83;;;9.83;;
4939;SDS011;2485;49.326;7.214;2024-01-11T10:22:57;26.57;;;11.30;;
4939;SDS011;2485;49.326;7.214;2024-01-11T10:25:25;43.07;;;16.63;;
4939;SDS011;2485;49.326;7.214;2024-01-11T10:27:52;24.43;;;12.40;;
4939;SDS011;2485;49.326;7.214;2024-01-11T10:30:19;26.23;;;12.60;;
4939;SDS011;2485;49.326;7.214;2024-01-11T10:32:47;31.80;;;15.40;;
4939;SDS011;2485;49.326;7.214;2024-01-11T10:35:14;25.70;;;12.60;;
4939;SDS011;2485;49.326;7.214;2024-01-11T10:37:43;32.27;;;9.57;;
4939;SDS011;2485;49.326;7.214;2024-01-11T10:40:10;17.17;;;8.97;;
4939;SDS011;2485;49.326;7.214;2024-01-11T10:42:41;31.40;;;14.13;;
4939;SDS011;2485;49.326;7.214;2024-01-11T10:45:09;39.93;;;16.60;;
4939;SDS011;2485;49.326;7.214;2024-01-11T10:47:36;35.80;;;15.50;;
4939;SDS011;2485;49.326;7.214;2024-01-11T10:50:04;33.43;;;11.67;;
4939;SDS011;2485;49.326;7.214;2024-01-11T10:52:38;32.90;;;15.60;;
4939;SDS011;2485;49.326;7.214;2024-01-11T10:55:07;27.30;;;13.83;;
4939;SDS011;2485;49.326;7.214;2024-01-11T10:57:33;27.80;;;12.50;;
4939;SDS011;2485;49.326;7.214;2024-01-11T11:00:02;32.63;;;12.27;;
4939;SDS011;2485;49.326;7.214;2024-01-11T11:02:30;22.40;;;9.97;;
4939;SDS011;2485;49.326;7.214;2024-01-11T11:04:58;17.67;;;8.00;;
4939;SDS011;2485;49.326;7.214;2024-01-11T11:07:29;24.10;;;10.27;;
4939;SDS011;2485;49.326;7.214;2024-01-11T11:09:55;26.33;;;12.40;;
4939;SDS011;2485;49.326;7.214;2024-01-11T11:12:22;41.90;;;17.90;;
4939;SDS011;2485;49.326;7.214;2024-01-11T11:14:49;22.33;;;9.67;;
4939;SDS011;2485;49.326;7.214;2024-01-11T11:17:16;26.60;;;9.80;;
4939;SDS011;2485;49.326;7.214;2024-01-11T11:19:43;37.77;;;16.43;;
4939;SDS011;2485;49.326;7.214;2024-01-11T11:22:10;28.40;;;13.40;;
4939;SDS011;2485;49.326;7.214;2024-01-11T11:24:39;36.50;;;15.13;;
4939;SDS011;2485;49.326;7.214;2024-01-11T11:27:06;40.57;;;15.00;;
4939;SDS011;2485;49.326;7.214;2024-01-11T11:29:32;29.07;;;13.40;;
4939;SDS011;2485;49.326;7.214;2024-01-11T11:31:59;30.07;;;13.10;;
4939;SDS011;2485;49.326;7.214;2024-01-11T11:37:08;35.83;;;16.00;;
4939;SDS011;2485;49.326;7.214;2024-01-11T11:39:35;26.80;;;10.93;;
4939;SDS011;2485;49.326;7.214;2024-01-11T11:42:03;28.10;;;10.37;;
4939;SDS011;2485;49.326;7.214;2024-01-11T11:44:30;42.63;;;14.53;;
4939;SDS011;2485;49.326;7.214;2024-01-11T11:47:04;31.30;;;14.27;;
4939;SDS011;2485;49.326;7.214;2024-01-11T11:49:58;22.13;;;10.53;;
4939;SDS011;2485;49.326;7.214;2024-01-11T11:52:30;31.00;;;13.60;;
4939;SDS011;2485;49.326;7.214;2024-01-11T11:54:58;26.67;;;11.43;;
4939;SDS011;2485;49.326;7.214;2024-01-11T11:57:25;35.37;;;11.93;;
4939;SDS011;2485;49.326;7.214;2024-01-11T11:59:53;27.20;;;9.40;;
4939;SDS011;2485;49.326;7.214;2024-01-11T12:02:21;25.70;;;12.50;;
4939;SDS011;2485;49.326;7.214;2024-01-11T12:04:49;20.87;;;8.67;;
4939;SDS011;2485;49.326;7.214;2024-01-11T12:07:15;20.70;;;9.43;;
4939;SDS011;2485;49.326;7.214;2024-01-11T12:09:43;17.07;;;8.50;;
4939;SDS011;2485;49.326;7.214;2024-01-11T12:12:10;27.17;;;11.90;;
4939;SDS011;2485;49.326;7.214;2024-01-11T12:14:36;23.10;;;10.80;;
4939;SDS011;2485;49.326;7.214;2024-01-11T12:17:03;25.63;;;11.63;;
4939;SDS011;2485;49.326;7.214;2024-01-11T12:19:30;25.50;;;12.03;;
4939;SDS011;2485;49.326;7.214;2024-01-11T12:21:56;27.13;;;11.60;;
4939;SDS011;2485;49.326;7.214;2024-01-11T12:24:23;26.60;;;11.30;;
4939;SDS011;2485;49.326;7.214;2024-01-11T12:26:51;19.90;;;8.90;;
4939;SDS011;2485;49.326;7.214;2024-01-11T12:29:19;20.90;;;9.00;;
4939;SDS011;2485;49.326;7.214;2024-01-11T12:31:45;27.40;;;12.80;;
4939;SDS011;2485;49.326;7.214;2024-01-11T12:34:13;34.93;;;10.50;;
4939;SDS011;2485;49.326;7.214;2024-01-11T12:36:40;27.10;;;12.50;;
4939;SDS011;2485;49.326;7.214;2024-01-11T12:39:06;24.90;;;12.50;;
4939;SDS011;2485;49.326;7.214;2024-01-11T12:41:34;25.30;;;11.97;;
4939;SDS011;2485;49.326;7.214;2024-01-11T12:44:02;27.00;;;12.30;;
4939;SDS011;2485;49.326;7.214;2024-01-11T12:46:28;25.27;;;11.63;;
4939;SDS011;2485;49.326;7.214;2024-01-11T12:48:55;16.07;;;7.97;;
4939;SDS011;2485;49.326;7.214;2024-01-11T12:51:21;20.60;;;8.77;;
4939;SDS011;2485;49.326;7.214;2024-01-11T12:53:50;26.07;;;12.40;;
4939;SDS011;2485;49.326;7.214;2024-01-11T12:56:18;29.93;;;15.30;;
4939;SDS011;2485;49.326;7.214;2024-01-11T12:58:46;22.10;;;10.10;;
4939;SDS011;2485;49.326;7.214;2024-01-11T13:01:14;24.43;;;12.47;;
4939;SDS011;2485;49.326;7.214;2024-01-11T13:03:43;12.77;;;7.20;;
4939;SDS011;2485;49.326;7.214;2024-01-11T13:06:10;13.23;;;7.47;;
4939;SDS011;2485;49.326;7.214;2024-01-11T13:08:37;23.43;;;10.50;;
4939;SDS011;2485;49.326;7.214;2024-01-11T13:11:05;10.50;;;6.60;;
4939;SDS011;2485;49.326;7.214;2024-01-11T13:13:32;14.87;;;7.30;;
4939;SDS011;2485;49.326;7.214;2024-01-11T13:15:58;19.70;;;9.47;;
4939;SDS011;2485;49.326;7.214;2024-01-11T13:18:26;26.20;;;11.20;;
4939;SDS011;2485;49.326;7.214;2024-01-11T13:20:52;24.27;;;11.23;;
4939;SDS011;2485;49.326;7.214;2024-01-11T13:23:19;20.67;;;9.60;;
4939;SDS011;2485;49.326;7.214;2024-01-11T13:25:46;19.70;;;10.07;;
4939;SDS011;2485;49.326;7.214;2024-01-11T13:28:13;23.47;;;11.50;;
4939;SDS011;2485;49.326;7.214;2024-01-11T13:30:39;22.40;;;10.63;;
4939;SDS011;2485;49.326;7.214;2024-01-11T13:33:06;23.30;;;11.40;;
4939;SDS011;2485;49.326;7.214;2024-01-11T13:35:35;11.47;;;6.03;;
4939;SDS011;2485;49.326;7.214;2024-01-11T13:38:02;28.17;;;10.47;;
4939;SDS011;2485;49.326;7.214;2024-01-11T13:40:29;23.10;;;11.90;;
4939;SDS011;2485;49.326;7.214;2024-01-11T13:42:56;16.60;;;8.63;;
4939;SDS011;2485;49.326;7.214;2024-01-11T13:45:22;21.93;;;9.00;;
4939;SDS011;2485;49.326;7.214;2024-01-11T13:47:49;21.30;;;11.53;;
4939;SDS011;2485;49.326;7.214;2024-01-11T13:50:15;16.30;;;8.23;;
4939;SDS011;2485;49.326;7.214;2024-01-11T13:52:44;15.23;;;8.00;;
4939;SDS011;2485;49.326;7.214;2024-01-11T13:55:11;17.33;;;8.83;;
4939;SDS011;2485;49.326;7.214;2024-01-11T13:57:37;17.50;;;8.83;;
4939;SDS011;2485;49.326;7.214;2024-01-11T14:00:04;11.93;;;5.90;;
4939;SDS011;2485;49.326;7.214;2024-01-11T14:02:31;12.20;;;5.37;;
4939;SDS011;2485;49.326;7.214;2024-01-11T14:04:58;14.60;;;7.00;;
4939;SDS011;2485;49.326;7.214;2024-01-11T14:07:24;13.80;;;6.87;;
4939;SDS011;2485;49.326;7.214;2024-01-11T14:09:53;16.13;;;9.87;;
4939;SDS011;2485;49.326;7.214;2024-01-11T14:12:19;20.00;;;8.63;;
4939;SDS011;2485;49.326;7.214;2024-01-11T14:14:45;14.03;;;7.73;;
4939;SDS011;2485;49.326;7.214;2024-01-11T14:17:12;22.07;;;8.40;;
4939;SDS011;2485;49.326;7.214;2024-01-11T14:19:38;18.57;;;9.00;;
4939;SDS011;2485;49.326;7.214;2024-01-11T14:22:05;17.50;;;7.60;;
4939;SDS011;2485;49.326;7.214;2024-01-11T14:24:32;11.70;;;5.87;;
4939;SDS011;2485;49.326;7.214;2024-01-11T14:27:00;16.73;;;8.10;;
4939;SDS011;2485;49.326;7.214;2024-01-11T14:29:27;17.07;;;8.97;;
4939;SDS011;2485;49.326;7.214;2024-01-11T14:31:54;11.97;;;7.00;;
4939;SDS011;2485;49.326;7.214;2024-01-11T14:34:20;14.20;;;7.23;;
4939;SDS011;2485;49.326;7.214;2024-01-11T14:36:47;17.90;;;7.50;;
4939;SDS011;2485;49.326;7.214;2024-01-11T14:39:16;18.93;;;8.87;;
4939;SDS011;2485;49.326;7.214;2024-01-11T14:41:42;15.17;;;6.77;;
4939;SDS011;2485;49.326;7.214;2024-01-11T14:44:12;21.63;;;8.60;;
4939;SDS011;2485;49.326;7.214;2024-01-11T14:46:38;18.17;;;7.97;;
4939;SDS011;2485;49.326;7.214;2024-01-11T14:49:07;19.60;;;8.67;;
4939;SDS011;2485;49.326;7.214;2024-01-11T14:51:34;16.10;;;8.70;;